Kansas City, Missouri
Traffic Map
Current Weather Conditions
Kansas City, Missouri
Clear
Clear
17°
Feels Like: 17°
Wind Chill: 17° Ceiling: Unl
Heat Index: 17° Visibility: 10mi
Dew Point: Wind: 10mph
Humidity: 48% Direction: 190° (S)
Pressure: 30.16in Gusts: 0mph
Raw Report DataKMKC 191354Z 19009KT 10SM CLR 17/06 A3016 RMK AO2 SLP209 T01720061
Traffic Incident Summary
Active as of:
Severity:
Category:
InformationThere was an issue retrieving the traffic information for this location. Please try a different location or try again shortly.
Advertisements
At Last! Intellicast now available for iPhone and Android